Time;durP1;ratioP1;P1;durP2;ratioP2;P2;SDS_P1;SDS_P2;PMS_P1;PMS_P2;Temp;Humidity;BMP_temperature;BMP_pressure;BME280_temperature;BME280_humidity;BME280_pressure;Samples;Min_cycle;Max_cycle;Signal;HPM_P1;HPM_P2
2022/06/21 00:01:51;;;;;;;0.40;0.40;;;16.50;99.90;;;;;;5034165;28;20196;-74
2022/06/21 00:04:17;;;;;;;0.40;0.40;;;16.50;1.00;;;;;;5034309;28;20183;-74
2022/06/21 00:06:42;;;;;;;0.30;0.30;;;16.50;1.00;;;;;;5033711;28;20566;-73
2022/06/21 00:09:11;;;;;;;0.40;0.40;;;16.40;99.90;;;;;;5033695;28;20184;-74
2022/06/21 00:11:38;;;;;;;0.30;0.30;;;16.30;1.00;;;;;;5034377;28;20224;-74
2022/06/21 00:14:04;;;;;;;0.30;0.30;;;16.20;1.00;;;;;;5033875;28;20178;-74
2022/06/21 00:16:31;;;;;;;0.40;0.40;;;16.20;1.00;;;;;;5033847;28;20278;-74
2022/06/21 00:18:57;;;;;;;0.40;0.40;;;16.20;1.00;;;;;;5033671;28;20258;-75
2022/06/21 00:21:25;;;;;;;0.30;0.30;;;16.10;1.00;;;;;;5033409;28;20768;-75
2022/06/21 00:23:52;;;;;;;0.40;0.40;;;16.10;99.90;;;;;;5033871;28;20527;-74
2022/06/21 00:26:21;;;;;;;0.40;0.40;;;16.20;99.90;;;;;;5033588;28;20217;-73
2022/06/21 00:28:46;;;;;;;0.40;0.40;;;16.20;1.00;;;;;;5033389;28;20176;-74
2022/06/21 00:31:25;;;;;;;0.30;0.30;;;16.30;99.90;;;;;;5031729;28;20574;-73
2022/06/21 00:33:51;;;;;;;0.30;0.30;;;16.30;99.90;;;;;;5033345;28;20175;-73
2022/06/21 00:36:27;;;;;;;0.30;0.30;;;16.20;99.90;;;;;;5033387;28;20233;-73
2022/06/21 00:38:55;;;;;;;0.30;0.30;;;16.10;99.90;;;;;;5033073;28;20179;-73
2022/06/21 00:41:33;;;;;;;0.30;0.30;;;16.10;1.00;;;;;;5033497;28;20218;-73
2022/06/21 00:44:02;;;;;;;0.40;0.40;;;16.00;1.00;;;;;;5033481;28;20258;-73
2022/06/21 00:47:07;;;;;;;0.43;0.43;;;16.00;1.00;;;;;;5033086;28;20172;-73
2022/06/21 00:49:52;;;;;;;0.37;0.37;;;15.90;1.00;;;;;;4978386;28;20200;-73
2022/06/21 00:52:30;;;;;;;0.40;0.40;;;15.80;1.00;;;;;;5033137;28;20258;-74
2022/06/21 00:55:10;;;;;;;0.40;0.40;;;15.80;1.00;;;;;;5033186;28;20187;-74
2022/06/21 00:57:51;;;;;;;0.30;0.30;;;15.70;1.00;;;;;;5033516;28;20172;-74
2022/06/21 01:00:37;;;;;;;0.40;0.40;;;15.60;1.00;;;;;;5032848;28;20210;-73
2022/06/21 01:03:08;;;;;;;0.30;0.30;;;15.60;1.00;;;;;;5032981;28;20210;-74
2022/06/21 01:05:38;;;;;;;0.40;0.40;;;15.50;1.00;;;;;;5032738;28;20566;-74
2022/06/21 01:08:04;;;;;;;0.30;0.30;;;15.50;1.00;;;;;;5032803;28;20203;-74
2022/06/21 01:10:30;;;;;;;0.40;0.40;;;15.50;1.00;;;;;;5032544;28;20186;-74
2022/06/21 01:12:58;;;;;;;0.40;0.40;;;15.40;1.00;;;;;;5032470;28;20303;-74
2022/06/21 01:15:30;;;;;;;0.30;0.30;;;15.20;1.00;;;;;;5032782;28;20183;-73
2022/06/21 01:18:00;;;;;;;0.30;0.30;;;15.00;1.00;;;;;;5032852;28;20176;-73
2022/06/21 01:20:30;;;;;;;0.20;0.20;;;14.90;1.00;;;;;;5032232;28;20179;-74
2022/06/21 01:23:11;;;;;;;0.30;0.30;;;14.80;1.00;;;;;;5032878;28;20282;-74
2022/06/21 01:25:47;;;;;;;0.37;0.37;;;14.60;1.00;;;;;;5031472;28;20199;-74
2022/06/21 01:28:14;;;;;;;0.33;0.33;;;14.60;1.00;;;;;;5032606;28;20175;-74
2022/06/21 01:30:44;;;;;;;0.40;0.40;;;14.60;1.00;;;;;;5032156;28;20183;-72
2022/06/21 01:33:13;;;;;;;0.30;0.30;;;14.60;1.00;;;;;;5032345;28;20235;-73
2022/06/21 01:35:46;;;;;;;0.30;0.30;;;14.50;1.00;;;;;;5032238;28;20247;-72
2022/06/21 01:38:23;;;;;;;0.40;0.40;;;14.50;1.00;;;;;;5031500;28;20175;-73
2022/06/21 01:40:52;;;;;;;0.40;0.40;;;14.50;1.00;;;;;;5031345;28;20665;-72
2022/06/21 01:43:25;;;;;;;0.50;0.50;;;14.50;1.00;;;;;;5032170;28;20199;-72
2022/06/21 01:46:03;;;;;;;0.37;0.37;;;14.60;99.90;;;;;;5032873;28;20680;-72
2022/06/21 01:48:38;;;;;;;0.30;0.30;;;14.70;99.90;;;;;;5032543;28;20176;-72
2022/06/21 01:51:09;;;;;;;0.40;0.40;;;14.90;1.00;;;;;;5031621;28;20210;-72
2022/06/21 01:53:36;;;;;;;0.40;0.40;;;14.90;99.90;;;;;;5032041;28;20184;-72
2022/06/21 01:56:07;;;;;;;0.40;0.40;;;14.90;99.90;;;;;;5031973;28;20190;-72
2022/06/21 01:58:41;;;;;;;0.40;0.40;;;14.90;99.90;;;;;;5032182;28;20198;-72
2022/06/21 02:01:29;;;;;;;0.40;0.40;;;14.90;99.90;;;;;;5031654;28;20203;-72
2022/06/21 02:03:58;;;;;;;0.30;0.30;;;15.00;99.90;;;;;;5031350;28;20226;-73
2022/06/21 02:06:26;;;;;;;0.40;0.40;;;14.90;99.90;;;;;;5031322;28;20644;-73
2022/06/21 02:08:57;;;;;;;0.40;0.40;;;14.90;99.90;;;;;;5031288;28;20665;-72
2022/06/21 02:11:28;;;;;;;0.30;0.30;;;14.90;99.90;;;;;;5031055;28;20250;-73
2022/06/21 02:16:51;;;;;;;0.40;0.40;;;14.90;1.00;;;;;;5087555;22;20603;-81
2022/06/21 02:19:38;;;;;;;0.30;0.30;;;14.90;1.00;;;;;;5053672;28;20194;-81
2022/06/21 02:22:05;;;;;;;0.30;0.30;;;14.80;1.00;;;;;;5053294;28;20221;-83
2022/06/21 02:24:31;;;;;;;0.30;0.30;;;14.70;1.00;;;;;;5052779;28;20655;-78
2022/06/21 02:26:59;;;;;;;0.40;0.40;;;14.60;99.90;;;;;;5053542;28;20213;-80
2022/06/21 02:29:25;;;;;;;0.30;0.30;;;14.50;1.00;;;;;;5053370;28;20191;-80
2022/06/21 02:31:51;;;;;;;0.50;0.50;;;14.40;1.00;;;;;;5052128;28;20761;-78
2022/06/21 02:34:22;;;;;;;0.30;0.30;;;14.30;1.00;;;;;;5051812;28;20274;-79
2022/06/21 02:36:55;;;;;;;0.30;0.30;;;14.30;1.00;;;;;;5051283;28;20262;-77
2022/06/21 02:39:24;;;;;;;0.33;0.33;;;14.30;1.00;;;;;;5051132;28;20648;-81
2022/06/21 02:42:04;;;;;;;0.30;0.30;;;14.20;1.00;;;;;;5052293;28;20671;-78
2022/06/21 02:44:41;;;;;;;0.30;0.30;;;14.20;1.00;;;;;;5052843;28;20175;-78
2022/06/21 02:47:19;;;;;;;0.40;0.40;;;14.20;1.00;;;;;;5052962;28;20244;-78
2022/06/21 02:49:52;;;;;;;0.50;0.50;;;14.10;1.00;;;;;;5053166;28;20178;-79
2022/06/21 02:52:38;;;;;;;0.37;0.37;;;14.00;1.00;;;;;;5051601;28;20219;-78
2022/06/21 02:55:27;;;;;;;0.30;0.30;;;14.00;1.00;;;;;;5045013;28;20175;-82
2022/06/21 02:58:06;;;;;;;0.30;0.30;;;14.00;1.00;;;;;;5051918;28;20179;-79
2022/06/21 03:00:32;;;;;;;0.40;0.40;;;13.90;1.00;;;;;;5051569;28;20207;-78
2022/06/21 03:03:01;;;;;;;0.30;0.30;;;13.90;1.00;;;;;;5051350;28;20278;-79
2022/06/21 03:05:27;;;;;;;0.30;0.30;;;13.90;1.00;;;;;;5051909;28;20206;-78
2022/06/21 03:07:57;;;;;;;0.30;0.30;;;13.90;1.00;;;;;;5051067;28;20670;-80
2022/06/21 03:10:34;;;;;;;0.30;0.30;;;13.80;1.00;;;;;;5051290;28;20237;-77
2022/06/21 03:13:10;;;;;;;0.40;0.40;;;13.80;1.00;;;;;;5051676;28;20218;-79
2022/06/21 03:15:37;;;;;;;0.40;0.40;;;13.80;1.00;;;;;;5051774;28;20193;-77
2022/06/21 03:18:09;;;;;;;0.30;0.30;;;13.80;1.00;;;;;;5051353;28;20181;-78
2022/06/21 03:20:35;;;;;;;0.40;0.40;;;13.70;1.00;;;;;;5051014;28;20175;-81
2022/06/21 03:23:03;;;;;;;0.30;0.30;;;13.70;1.00;;;;;;5052442;28;20552;-78
2022/06/21 03:26:12;;;;;;;0.30;0.30;;;13.80;1.00;;;;;;5052999;28;20217;-85
2022/06/21 03:28:41;;;;;;;0.40;0.40;;;13.80;1.00;;;;;;4991709;28;20645;-78
2022/06/21 03:31:27;;;;;;;0.37;0.37;;;13.80;1.00;;;;;;4990244;28;20192;-78
2022/06/21 03:33:56;;;;;;;0.30;0.30;;;13.80;1.00;;;;;;5029128;28;20195;-78
2022/06/21 03:36:25;;;;;;;0.40;0.40;;;13.80;1.00;;;;;;5051761;28;20240;-79
2022/06/21 03:39:12;;;;;;;0.30;0.30;;;13.80;1.00;;;;;;5050639;28;20167;-82
2022/06/21 03:41:43;;;;;;;0.40;0.40;;;13.80;1.00;;;;;;5051574;28;20202;-81
2022/06/21 03:44:22;;;;;;;0.30;0.30;;;13.70;1.00;;;;;;5051394;28;20254;-76
2022/06/21 03:46:57;;;;;;;0.40;0.40;;;13.80;1.00;;;;;;5051026;28;20175;-77
2022/06/21 03:49:37;;;;;;;0.40;0.40;;;13.80;1.00;;;;;;5050272;28;20185;-79
2022/06/21 03:52:07;;;;;;;0.40;0.40;;;13.90;1.00;;;;;;5051043;28;20242;-78
2022/06/21 03:54:47;;;;;;;0.40;0.40;;;14.00;1.00;;;;;;5050816;28;20187;-80
2022/06/21 03:57:30;;;;;;;0.30;0.30;;;14.10;1.00;;;;;;5050362;28;20189;-78
2022/06/21 04:00:00;;;;;;;0.40;0.40;;;14.20;1.00;;;;;;5050546;28;20175;-78
2022/06/21 04:02:25;;;;;;;0.30;0.30;;;14.40;1.00;;;;;;5050703;28;20218;-77
2022/06/21 04:05:11;;;;;;;0.40;0.40;;;14.50;70.30;;;;;;5052449;28;20198;-78
2022/06/21 04:07:46;;;;;;;0.40;0.40;;;14.50;1.00;;;;;;5055135;28;20179;-79
2022/06/21 04:10:22;;;;;;;0.40;0.40;;;14.40;1.00;;;;;;5053703;28;20179;-77
2022/06/21 04:13:21;;;;;;;0.40;0.40;;;14.40;1.00;;;;;;5053735;28;20226;-77
2022/06/21 04:16:26;;;;;;;0.40;0.40;;;14.50;1.00;;;;;;5041105;28;20203;-78
2022/06/21 04:18:59;;;;;;;0.40;0.40;;;14.50;1.00;;;;;;5038096;28;20428;-81
2022/06/21 04:21:46;;;;;;;0.30;0.30;;;14.60;1.00;;;;;;5052837;28;20198;-78
2022/06/21 04:24:35;;;;;;;0.30;0.30;;;14.70;1.00;;;;;;5052370;28;20193;-77
2022/06/21 04:27:24;;;;;;;0.30;0.30;;;14.80;1.00;;;;;;5022927;28;20237;-78
2022/06/21 04:30:02;;;;;;;0.30;0.30;;;15.00;99.90;;;;;;5053111;28;20179;-78
2022/06/21 04:32:37;;;;;;;0.40;0.40;;;15.10;99.90;;;;;;5053015;28;20226;-80
2022/06/21 04:35:14;;;;;;;0.33;0.33;;;15.30;1.00;;;;;;5053813;28;20670;-78
2022/06/21 04:37:49;;;;;;;0.30;0.30;;;15.50;1.00;;;;;;5053559;28;20525;-77
2022/06/21 04:40:21;;;;;;;0.30;0.30;;;15.60;1.00;;;;;;5053400;28;20193;-80
2022/06/21 04:43:04;;;;;;;0.30;0.30;;;15.70;99.90;;;;;;5053136;28;20282;-80
2022/06/21 04:45:45;;;;;;;0.30;0.30;;;15.80;1.00;;;;;;5053396;28;20183;-77
2022/06/21 04:48:19;;;;;;;0.30;0.30;;;15.80;1.00;;;;;;5053525;28;20611;-77
2022/06/21 04:50:53;;;;;;;0.30;0.30;;;15.80;1.00;;;;;;5052969;28;20183;-78
2022/06/21 04:53:43;;;;;;;0.30;0.30;;;15.90;99.90;;;;;;5053230;28;20218;-78
2022/06/21 04:56:27;;;;;;;0.40;0.40;;;15.90;99.90;;;;;;5053284;28;20715;-78
2022/06/21 04:58:53;;;;;;;0.30;0.30;;;15.90;99.90;;;;;;5053076;28;20174;-78
2022/06/21 05:01:37;;;;;;;0.30;0.30;;;15.80;99.90;;;;;;5053427;28;20629;-82
2022/06/21 05:04:26;;;;;;;0.30;0.30;;;16.20;99.90;;;;;;5053193;28;20186;-81
2022/06/21 05:06:54;;;;;;;0.30;0.30;;;16.20;99.90;;;;;;5052839;28;20228;-78
2022/06/21 05:09:23;;;;;;;0.40;0.40;;;16.20;1.00;;;;;;5052703;28;20190;-78
2022/06/21 05:12:00;;;;;;;0.30;0.30;;;16.20;99.90;;;;;;5053256;28;20223;-80
2022/06/21 05:14:29;;;;;;;0.40;0.40;;;16.30;1.00;;;;;;5056649;28;20187;-79
2022/06/21 05:16:55;;;;;;;0.40;0.40;;;16.40;99.90;;;;;;5054373;28;20191;-79
2022/06/21 05:19:39;;;;;;;0.30;0.30;;;16.50;99.90;;;;;;5052623;28;20215;-83
2022/06/21 05:22:19;;;;;;;0.30;0.30;;;16.70;99.90;;;;;;5053000;28;20199;-79
2022/06/21 05:24:45;;;;;;;0.30;0.30;;;16.60;1.00;;;;;;5052986;28;20279;-79
2022/06/21 05:27:29;;;;;;;0.30;0.30;;;16.70;1.00;;;;;;5053054;28;20190;-80
2022/06/21 05:30:03;;;;;;;0.40;0.40;;;16.70;66.70;;;;;;5052143;28;20317;-79
2022/06/21 05:32:37;;;;;;;0.30;0.30;;;16.70;99.90;;;;;;5052524;28;20215;-78
2022/06/21 05:35:11;;;;;;;0.30;0.30;;;16.90;1.00;;;;;;5050553;28;20647;-78
2022/06/21 05:37:48;;;;;;;0.30;0.30;;;16.90;1.00;;;;;;5049692;28;20342;-77
2022/06/21 05:40:36;;;;;;;0.40;0.40;;;16.90;1.00;;;;;;5051946;28;20175;-80
2022/06/21 05:43:01;;;;;;;0.30;0.30;;;16.80;1.00;;;;;;5052825;28;20702;-79
2022/06/21 05:45:33;;;;;;;0.30;0.30;;;16.80;1.00;;;;;;5052509;28;20175;-78
2022/06/21 05:48:02;;;;;;;0.30;0.30;;;16.70;1.00;;;;;;5052073;28;20531;-79
2022/06/21 05:50:32;;;;;;;0.40;0.40;;;16.80;1.00;;;;;;5051517;28;20191;-80
2022/06/21 05:53:08;;;;;;;0.40;0.40;;;16.80;1.00;;;;;;5052045;28;20217;-79
2022/06/21 05:55:38;;;;;;;0.30;0.30;;;16.90;1.00;;;;;;5052423;28;20270;-78
2022/06/21 05:58:08;;;;;;;0.30;0.30;;;16.80;1.00;;;;;;5052852;28;20237;-78
2022/06/21 06:00:40;;;;;;;0.30;0.30;;;16.80;1.00;;;;;;5051589;28;20203;-79
2022/06/21 06:03:12;;;;;;;0.30;0.30;;;16.80;1.00;;;;;;5051865;28;20690;-79
2022/06/21 06:05:38;;;;;;;0.40;0.40;;;16.80;1.00;;;;;;5052390;28;20254;-79
2022/06/21 06:08:35;;;;;;;0.40;0.40;;;16.80;1.00;;;;;;5051865;28;20254;-79
2022/06/21 06:11:04;;;;;;;0.30;0.30;;;16.70;1.00;;;;;;5051593;28;20598;-80
2022/06/21 06:13:35;;;;;;;0.40;0.40;;;16.70;1.00;;;;;;5052124;28;20176;-79
2022/06/21 06:16:10;;;;;;;0.33;0.33;;;16.70;1.00;;;;;;5052290;28;20551;-78
2022/06/21 06:18:55;;;;;;;0.30;0.30;;;16.70;1.00;;;;;;5051888;28;20647;-78
2022/06/21 06:21:30;;;;;;;0.30;0.30;;;16.80;1.00;;;;;;5052045;28;20199;-78
2022/06/21 06:24:21;;;;;;;0.37;0.37;;;17.00;1.00;;;;;;5052379;28;20183;-80
2022/06/21 06:26:53;;;;;;;0.30;0.30;;;17.00;55.40;;;;;;5053054;28;20523;-78
2022/06/21 06:29:27;;;;;;;0.47;0.47;;;17.20;1.00;;;;;;5051637;28;20217;-78
2022/06/21 06:31:59;;;;;;;0.30;0.30;;;17.40;1.00;;;;;;5052002;28;20264;-78
2022/06/21 06:34:30;;;;;;;0.30;0.30;;;17.50;1.00;;;;;;5053554;28;20194;-79
2022/06/21 06:37:02;;;;;;;0.40;0.40;;;17.50;1.00;;;;;;5053356;28;20190;-77
2022/06/21 06:39:30;;;;;;;0.40;0.40;;;17.50;1.00;;;;;;5050891;28;20167;-77
2022/06/21 06:42:05;;;;;;;0.30;0.30;;;17.60;1.00;;;;;;5051219;28;20199;-77
2022/06/21 06:44:57;;;;;;;0.40;0.40;;;17.60;1.00;;;;;;5051356;28;20670;-76
2022/06/21 06:47:27;;;;;;;0.40;0.40;;;17.80;1.00;;;;;;5051276;28;20175;-76
2022/06/21 06:49:58;;;;;;;0.33;0.33;;;17.90;1.00;;;;;;5050698;28;20175;-75
2022/06/21 06:52:26;;;;;;;0.40;0.40;;;18.00;1.00;;;;;;5051281;28;20707;-78
2022/06/21 06:54:55;;;;;;;0.37;0.37;;;18.10;1.00;;;;;;5050902;28;20648;-78
2022/06/21 06:57:32;;;;;;;0.30;0.30;;;18.20;1.00;;;;;;5050997;28;20203;-78
2022/06/21 07:00:00;;;;;;;0.30;0.30;;;18.30;1.00;;;;;;5050662;28;20182;-77
2022/06/21 07:02:45;;;;;;;0.37;0.37;;;18.40;1.00;;;;;;5050965;28;20205;-77
2022/06/21 07:05:34;;;;;;;0.30;0.30;;;18.30;1.00;;;;;;5051340;28;20201;-76
2022/06/21 07:08:13;;;;;;;0.30;0.30;;;18.50;1.00;;;;;;5051283;28;20183;-76
2022/06/21 07:10:39;;;;;;;0.40;0.40;;;18.50;1.00;;;;;;5051253;28;20585;-78
2022/06/21 07:13:06;;;;;;;0.30;0.30;;;18.70;1.00;;;;;;5051733;28;20403;-79
2022/06/21 07:15:36;;;;;;;0.30;0.30;;;18.80;1.00;;;;;;5051542;28;20195;-80
2022/06/21 07:18:04;;;;;;;0.33;0.33;;;18.90;1.00;;;;;;5051632;28;20257;-83
2022/06/21 07:20:38;;;;;;;0.33;0.33;;;18.90;1.00;;;;;;5051201;28;20172;-79
2022/06/21 07:23:15;;;;;;;0.40;0.40;;;18.90;1.00;;;;;;5051830;28;20209;-78
2022/06/21 07:25:46;;;;;;;0.40;0.40;;;19.20;1.00;;;;;;5051746;28;20260;-80
2022/06/21 07:28:25;;;;;;;0.30;0.30;;;19.40;1.00;;;;;;5053655;28;20530;-79
2022/06/21 07:30:53;;;;;;;0.30;0.30;;;19.70;1.00;;;;;;5051000;28;20652;-79
2022/06/21 07:33:26;;;;;;;0.30;0.30;;;19.80;1.00;;;;;;5051503;28;20219;-78
2022/06/21 07:36:12;;;;;;;0.30;0.30;;;19.90;1.00;;;;;;5051414;28;20182;-80
2022/06/21 07:38:43;;;;;;;0.30;0.30;;;20.10;1.00;;;;;;5051285;28;20171;-79
2022/06/21 07:41:18;;;;;;;0.30;0.30;;;20.10;1.00;;;;;;5054419;28;20199;-79
2022/06/21 07:43:48;;;;;;;0.30;0.30;;;20.10;1.00;;;;;;5055031;28;20185;-78
2022/06/21 07:46:23;;;;;;;0.30;0.30;;;20.20;1.00;;;;;;5053854;28;20186;-79
2022/06/21 07:48:59;;;;;;;0.30;0.30;;;20.20;1.00;;;;;;5053242;28;20179;-78
2022/06/21 07:51:32;;;;;;;0.30;0.30;;;20.10;1.00;;;;;;5053632;28;20225;-81
2022/06/21 07:54:22;;;;;;;0.30;0.30;;;20.10;1.00;;;;;;5055137;28;20190;-79
2022/06/21 07:56:59;;;;;;;0.30;0.30;;;20.30;1.00;;;;;;5055685;28;20178;-78
2022/06/21 07:59:26;;;;;;;0.30;0.30;;;20.50;1.00;;;;;;5056267;28;20178;-79
2022/06/21 08:06:41;;;;;;;0.33;0.33;;;20.80;1.00;;;;;;5057152;28;20189;-80
2022/06/21 08:08:18;;;;;;;0.37;0.37;;;21.00;1.00;;;;;;5056207;28;20659;-80
2022/06/21 08:11:10;;;;;;;0.30;0.30;;;21.00;1.00;;;;;;5056114;28;20542;-80
2022/06/21 08:13:37;;;;;;;0.33;0.33;;;21.20;1.00;;;;;;5049622;28;20203;-78
2022/06/21 08:16:10;;;;;;;0.30;0.30;;;21.30;1.00;;;;;;5055134;28;20190;-78
2022/06/21 08:18:59;;;;;;;0.30;0.30;;;21.20;1.00;;;;;;5051977;28;20175;-78
2022/06/21 08:21:31;;;;;;;0.30;0.30;;;21.00;1.00;;;;;;5052166;28;20596;-79
2022/06/21 08:24:05;;;;;;;0.30;0.30;;;21.00;1.00;;;;;;5049887;28;20262;-78
2022/06/21 08:26:39;;;;;;;0.40;0.40;;;20.80;1.00;;;;;;5053741;28;20175;-78
2022/06/21 08:29:22;;;;;;;0.30;0.30;;;20.80;1.00;;;;;;5054292;28;20207;-79
2022/06/21 08:32:00;;;;;;;0.30;0.30;;;20.80;1.00;;;;;;5054342;28;20239;-78
2022/06/21 08:34:29;;;;;;;0.30;0.30;;;20.60;1.00;;;;;;5053579;28;20174;-78
2022/06/21 08:36:59;;;;;;;0.30;0.30;;;20.70;1.00;;;;;;5053839;28;20179;-80
2022/06/21 08:39:47;;;;;;;0.30;0.30;;;20.60;1.00;;;;;;5053388;28;20183;-79
2022/06/21 08:42:58;;;;;;;0.30;0.30;;;20.50;1.00;;;;;;5054373;28;20636;-77
2022/06/21 08:45:50;;;;;;;0.30;0.30;;;20.90;1.00;;;;;;5054101;28;20218;-79
2022/06/21 08:48:35;;;;;;;0.30;0.30;;;21.10;1.00;;;;;;5053743;28;20194;-79
2022/06/21 08:51:14;;;;;;;0.30;0.30;;;21.00;1.00;;;;;;5052302;28;20628;-78
2022/06/21 08:54:08;;;;;;;0.30;0.30;;;20.70;1.00;;;;;;5054123;28;20183;-80
2022/06/21 08:56:34;;;;;;;0.30;0.30;;;20.40;1.00;;;;;;5053821;28;20175;-79
2022/06/21 08:59:18;;;;;;;0.30;0.30;;;20.30;1.00;;;;;;5053177;28;20441;-77
2022/06/21 09:02:02;;;;;;;0.33;0.33;;;20.30;1.00;;;;;;5053486;28;20314;-77
2022/06/21 09:04:41;;;;;;;0.30;0.30;;;20.40;1.00;;;;;;5053174;28;20175;-78
2022/06/21 09:07:49;;;;;;;0.30;0.30;;;20.60;1.00;;;;;;5053622;28;20635;-77
2022/06/21 09:10:42;;;;;;;0.37;0.37;;;20.90;1.00;;;;;;5052924;28;20166;-78
2022/06/21 09:13:26;;;;;;;0.30;0.30;;;21.00;1.00;;;;;;5053221;28;20215;-79
2022/06/21 09:16:17;;;;;;;0.30;0.30;;;21.00;1.00;;;;;;5052791;28;20578;-78
2022/06/21 09:19:02;;;;;;;0.30;0.30;;;21.10;1.00;;;;;;5053227;28;20228;-78
2022/06/21 09:21:49;;;;;;;0.40;0.40;;;21.30;1.00;;;;;;5053269;28;20190;-78
2022/06/21 09:24:48;;;;;;;0.30;0.30;;;21.70;1.00;;;;;;5053110;28;20194;-79
2022/06/21 09:27:37;;;;;;;0.30;0.30;;;21.80;1.00;;;;;;5052946;28;20210;-79
2022/06/21 09:30:34;;;;;;;0.30;0.30;;;21.80;1.00;;;;;;5052594;28;20175;-80
2022/06/21 09:33:07;;;;;;;0.30;0.30;;;21.90;1.00;;;;;;5049423;28;20696;-78
2022/06/21 09:35:37;;;;;;;0.30;0.30;;;22.50;1.00;;;;;;5053032;28;20210;-77
2022/06/21 09:38:30;;;;;;;0.40;0.40;;;23.00;1.00;;;;;;5053476;28;20254;-78
2022/06/21 09:41:14;;;;;;;0.40;0.40;;;23.20;1.00;;;;;;5052419;28;20187;-78
2022/06/21 09:43:49;;;;;;;0.30;0.30;;;23.50;1.00;;;;;;5053357;28;20274;-78
2022/06/21 09:46:40;;;;;;;0.30;0.30;;;23.80;1.00;;;;;;5052901;28;20189;-80
2022/06/21 09:49:40;;;;;;;0.40;0.40;;;24.40;1.00;;;;;;5052546;28;20203;-77
2022/06/21 09:52:22;;;;;;;0.30;0.30;;;24.90;1.00;;;;;;5052267;28;20277;-78
2022/06/21 09:55:17;;;;;;;0.30;0.30;;;25.20;1.00;;;;;;5053233;28;20307;-78
2022/06/21 09:58:15;;;;;;;0.37;0.37;;;25.20;1.00;;;;;;5052892;28;20221;-78
2022/06/21 10:00:48;;;;;;;0.30;0.30;;;25.20;1.00;;;;;;5052022;28;20182;-78
2022/06/21 10:03:31;;;;;;;0.30;0.30;;;25.50;1.00;;;;;;5052793;28;20274;-79
2022/06/21 10:06:22;;;;;;;0.30;0.30;;;25.40;1.00;;;;;;5052565;28;20183;-79
2022/06/21 10:09:15;;;;;;;0.30;0.30;;;25.70;1.00;;;;;;5052028;28;20179;-78
2022/06/21 10:12:29;;;;;;;0.30;0.30;;;26.10;1.00;;;;;;5052048;28;20211;-79
2022/06/21 10:15:25;;;;;;;0.20;0.20;;;26.40;1.00;;;;;;5024765;28;20241;-78
2022/06/21 10:18:24;;;;;;;0.30;0.30;;;26.10;1.00;;;;;;5052296;28;20466;-77
2022/06/21 10:21:15;;;;;;;0.37;0.37;;;25.80;1.00;;;;;;5051785;28;20183;-78
2022/06/21 10:24:08;;;;;;;0.30;0.30;;;26.00;1.00;;;;;;5051916;28;20652;-77
2022/06/21 10:27:07;;;;;;;0.30;0.30;;;26.40;1.00;;;;;;5052193;28;20292;-77
2022/06/21 10:29:44;;;;;;;0.40;0.40;;;26.40;1.00;;;;;;5051978;28;20183;-79
2022/06/21 10:32:30;;;;;;;0.20;0.20;;;26.30;1.00;;;;;;5052209;28;20246;-80
2022/06/21 10:35:30;;;;;;;0.30;0.30;;;26.00;1.00;;;;;;5048463;28;20267;-78
2022/06/21 10:37:58;;;;;;;0.30;0.30;;;25.70;1.00;;;;;;5042603;28;20195;-78
2022/06/21 10:40:43;;;;;;;0.33;0.33;;;26.10;1.00;;;;;;5051998;28;20535;-78
2022/06/21 10:43:30;;;;;;;0.30;0.30;;;26.30;1.00;;;;;;5050856;28;20292;-78
2022/06/21 10:46:04;;;;;;;0.40;0.40;;;26.40;1.00;;;;;;5053341;28;20262;-79
2022/06/21 10:48:49;;;;;;;0.40;0.40;;;26.50;1.00;;;;;;5053450;28;20218;-80
2022/06/21 10:51:46;;;;;;;0.30;0.30;;;25.90;1.00;;;;;;5050957;28;20190;-80
2022/06/21 10:54:35;;;;;;;0.40;0.40;;;25.80;1.00;;;;;;5035539;28;20215;-81
2022/06/21 10:57:18;;;;;;;0.30;0.30;;;25.80;1.00;;;;;;5053401;28;20545;-81
2022/06/21 11:03:17;;;;;;;0.40;0.40;;;26.00;1.00;;;;;;5055041;28;20205;-82
2022/06/21 11:06:11;;;;;;;0.30;0.30;;;25.90;1.00;;;;;;5053220;28;20240;-77
2022/06/21 11:08:55;;;;;;;0.30;0.30;;;26.20;1.00;;;;;;5049946;28;20583;-78
2022/06/21 11:11:24;;;;;;;0.40;0.40;;;26.20;1.00;;;;;;5049491;28;20231;-77
2022/06/21 11:14:08;;;;;;;0.30;0.30;;;26.30;1.00;;;;;;5053233;28;20648;-80
2022/06/21 11:17:08;;;;;;;0.30;0.30;;;26.00;1.00;;;;;;5060193;28;20260;-80
2022/06/21 11:20:07;;;;;;;0.30;0.30;;;26.10;1.00;;;;;;5059028;28;20521;-77
2022/06/21 11:22:53;;;;;;;0.40;0.40;;;26.10;1.00;;;;;;5057505;28;20210;-81
2022/06/21 11:25:34;;;;;;;0.30;0.30;;;26.10;1.00;;;;;;5057150;28;20228;-78
2022/06/21 11:28:24;;;;;;;0.40;0.40;;;26.30;1.00;;;;;;5072857;28;20175;-79
2022/06/21 11:31:01;;;;;;;0.30;0.30;;;26.20;1.00;;;;;;5057158;28;20175;-79
2022/06/21 11:33:51;;;;;;;0.37;0.37;;;25.90;1.00;;;;;;5056883;28;20688;-81
2022/06/21 11:36:35;;;;;;;0.37;0.37;;;25.70;1.00;;;;;;5057715;28;20190;-80
2022/06/21 11:39:15;;;;;;;0.30;0.30;;;25.60;1.00;;;;;;5057799;28;20179;-78
2022/06/21 11:42:08;;;;;;;0.30;0.30;;;25.80;1.00;;;;;;5058441;28;20214;-77
2022/06/21 11:44:40;;;;;;;0.40;0.40;;;25.60;1.00;;;;;;5058119;28;20218;-78
2022/06/21 11:47:10;;;;;;;0.30;0.30;;;25.70;1.00;;;;;;5059289;28;20552;-78
2022/06/21 11:49:54;;;;;;;0.40;0.40;;;26.10;1.00;;;;;;5060212;28;20171;-78
2022/06/21 11:52:29;;;;;;;0.40;0.40;;;26.30;1.00;;;;;;5056364;28;20218;-79
2022/06/21 11:55:13;;;;;;;0.30;0.30;;;26.10;1.00;;;;;;5055826;28;20659;-79
2022/06/21 11:57:47;;;;;;;0.30;0.30;;;26.10;1.00;;;;;;5059735;28;20614;-80
2022/06/21 12:00:25;;;;;;;0.40;0.40;;;26.00;1.00;;;;;;5057659;28;20175;-79
2022/06/21 12:03:00;;;;;;;0.47;0.47;;;26.00;1.00;;;;;;5058632;28;20195;-79
2022/06/21 12:05:34;;;;;;;0.30;0.30;;;26.00;1.00;;;;;;5061204;28;20178;-80
2022/06/21 12:08:08;;;;;;;0.40;0.40;;;25.80;1.00;;;;;;5059515;28;20179;-79
2022/06/21 12:10:49;;;;;;;0.30;0.30;;;25.90;1.00;;;;;;5059061;28;20542;-78
2022/06/21 12:13:47;;;;;;;0.40;0.40;;;25.90;1.00;;;;;;5060231;28;20664;-78
2022/06/21 12:16:18;;;;;;;0.40;0.40;;;26.00;1.00;;;;;;5037276;28;20293;-80
2022/06/21 12:19:12;;;;;;;0.40;0.40;;;26.30;1.00;;;;;;5053060;28;20179;-78
2022/06/21 12:21:46;;;;;;;0.30;0.30;;;26.60;1.00;;;;;;5055172;28;20687;-79
2022/06/21 12:24:20;;;;;;;0.33;0.33;;;26.80;1.00;;;;;;5055340;28;20182;-80
2022/06/21 12:26:47;;;;;;;0.30;0.30;;;26.80;1.00;;;;;;5054389;28;20183;-81
2022/06/21 12:29:15;;;;;;;0.30;0.30;;;27.10;1.00;;;;;;5056031;28;20175;-78
2022/06/21 12:31:48;;;;;;;0.40;0.40;;;27.30;1.00;;;;;;5056285;28;20210;-80
2022/06/21 12:34:20;;;;;;;0.50;0.50;;;27.20;1.00;;;;;;5055650;28;20175;-80
2022/06/21 12:37:20;;;;;;;0.40;0.40;;;26.60;1.00;;;;;;5056214;28;20648;-80
2022/06/21 12:40:05;;;;;;;0.40;0.40;;;26.40;1.00;;;;;;5022973;28;20241;-80
2022/06/21 12:42:53;;;;;;;0.40;0.40;;;26.20;1.00;;;;;;5073709;28;20198;-80
2022/06/21 12:45:42;;;;;;;0.33;0.33;;;26.00;1.00;;;;;;5057425;28;20179;-78
2022/06/21 12:48:18;;;;;;;0.40;0.40;;;25.80;1.00;;;;;;5056527;28;20171;-79
2022/06/21 12:51:15;;;;;;;0.30;0.30;;;25.50;1.00;;;;;;5054767;28;20171;-79
2022/06/21 12:54:08;;;;;;;0.30;0.30;;;25.50;1.00;;;;;;5054703;28;20220;-80
2022/06/21 12:57:09;;;;;;;0.40;0.40;;;25.60;1.00;;;;;;5055007;28;20202;-79
2022/06/21 12:59:50;;;;;;;0.40;0.40;;;25.60;1.00;;;;;;5054358;28;20205;-79
2022/06/21 13:02:37;;;;;;;0.30;0.30;;;25.60;1.00;;;;;;5054229;28;20195;-79
2022/06/21 13:05:24;;;;;;;0.33;0.33;;;25.50;1.00;;;;;;5054472;28;20258;-81
2022/06/21 13:08:14;;;;;;;0.40;0.40;;;25.60;1.00;;;;;;5055520;28;20282;-80
2022/06/21 13:11:07;;;;;;;0.40;0.40;;;26.20;1.00;;;;;;5056525;28;20258;-80
2022/06/21 13:13:45;;;;;;;0.30;0.30;;;26.70;1.00;;;;;;5056289;28;20275;-82
2022/06/21 13:16:50;;;;;;;0.33;0.33;;;27.30;1.00;;;;;;5055671;28;20191;-78
2022/06/21 13:19:37;;;;;;;0.30;0.30;;;27.60;1.00;;;;;;5051739;28;20232;-77
2022/06/21 13:22:27;;;;;;;0.30;0.30;;;27.80;1.00;;;;;;5055716;28;20195;-80
2022/06/21 13:25:09;;;;;;;0.37;0.37;;;27.80;1.00;;;;;;5056439;28;20183;-81
2022/06/21 13:27:34;;;;;;;0.33;0.33;;;27.80;1.00;;;;;;5058465;28;20254;-80
2022/06/21 13:30:19;;;;;;;0.37;0.37;;;28.00;1.00;;;;;;5059502;28;20583;-79
2022/06/21 13:32:52;;;;;;;0.40;0.40;;;28.10;1.00;;;;;;5060385;28;20241;-81
2022/06/21 13:35:42;;;;;;;0.30;0.30;;;28.00;1.00;;;;;;5061574;28;20650;-81
2022/06/21 13:38:29;;;;;;;0.40;0.40;;;28.10;1.00;;;;;;5050329;28;20190;-79
2022/06/21 13:41:10;;;;;;;0.43;0.43;;;28.20;1.00;;;;;;5055285;28;20194;-79
2022/06/21 13:43:41;;;;;;;0.50;0.50;;;28.00;1.00;;;;;;5056505;28;20403;-81
2022/06/21 13:46:22;;;;;;;0.40;0.40;;;27.90;1.00;;;;;;5051624;28;20175;-79
2022/06/21 13:48:58;;;;;;;0.40;0.40;;;28.00;1.00;;;;;;5052224;28;20175;-79
2022/06/21 13:51:38;;;;;;;0.50;0.50;;;28.00;1.00;;;;;;5052428;28;20301;-81
2022/06/21 13:54:30;;;;;;;0.33;0.33;;;27.70;1.00;;;;;;5058772;28;20189;-78
2022/06/21 13:57:15;;;;;;;0.40;0.40;;;27.90;1.00;;;;;;5065768;28;20198;-82
2022/06/21 13:59:48;;;;;;;0.30;0.30;;;27.90;1.00;;;;;;5075617;28;20189;-82
2022/06/21 14:02:45;;;;;;;0.47;0.47;;;28.10;1.00;;;;;;5076394;28;20290;-81
2022/06/21 14:05:19;;;;;;;0.40;0.40;;;28.40;1.00;;;;;;5068309;28;20182;-81